PAJNPASI

Guest
Details From PAJN - Juneau Intl
To PASI - SITKA ROCKY GUTIERREZ
Flight Number -
Tags decoded
Created
Modified
Stats Distance 121 nm / 224 km
Max Altitude 0 ft / 0 m
Waypoints 6
Social Downloads 1
Likes 0
Share VATSIM

Download

Looking for another format? Having issues loading an existing format? Contact us
Advertisement - Login to hide

Notes

Requested: PAJN BARLO SSR SALIS HESOK PASI

Route

PAJN BARLO SSR SALIS HESOK PASI

ID Type Via Altitude Latitude Longitude Leg Dist Tot Dist Heading (true) Name
O PAJN APT - 0 ft / 0 m 58.35496˚ -134.57628˚ - 0 nm - Juneau Intl
BARLO FIX - 0 ft / 0 m 58.36046˚ -134.88924˚ 9 nm 9 nm 272° / 272° -
SSR VOR - 0 ft / 0 m 58.17767˚ -135.25886˚ 16 nm 25 nm 227° / 227° SISTERS ISLAND VORTAC
SALIS FIX - 0 ft / 0 m 57.38499˚ -136.30102˚ 58 nm 84 nm 215° / 215° -
HESOK FIX - 0 ft / 0 m 57.21309˚ -135.66252˚ 23 nm 107 nm 116° / 117° -
O PASI APT - 0 ft / 0 m 57.04713˚ -135.36160˚ 13 nm 121 nm 135° / 136° SITKA ROCKY GUTIERREZ

Altitude Profile

Advertisement - Login to hide

PAJN

Details ICAO PAJN (JNU)
Name Juneau Intl
Region USA (Alaska)
Timezone America/Juneau (UTC-9.0)
Stats Elevation 21 ft / 6 m (AMSL)
Location 58.354964° -134.576278°
Runways 1
Magnetic Variation 19.148° E

METAR

PAJN 141453Z 12026G32KT 3SM RA BR FEW015 BKN032 OVC055 08/07 A2977

Decode

TAF

TAF PAJN 141140Z 1412/1512 12018G28KT 5SM -RA BR FEW018 BKN030 OVC040 WS020/14040KT TEMPO 1412/1416 3SM RA BR SCT005 BKN020 OVC030 FM141600 11020G30KT 3SM RA BR OVC015 WS020/14040KT FM142200 11015G25KT 4SM -SHRA BR OVC030 WS020/21030KT FM150600 11015KT 6SM -SHRA BR SCT030 OVC050

Decode

Departure Runways

ID Width Length Bearing (true) Bearing (mag) Surface Threshold Offset Overrun Length
08 150 ft / 46 m 8,430 ft / 2,570 m 104.87° 85.72° Asphalt 0 ft / 0 m 450 ft / 137 m
26 150 ft / 46 m 8,430 ft / 2,570 m 284.90° 265.75° Asphalt 0 ft / 0 m 225 ft / 69 m

PASI

Details ICAO PASI (SIT)
Name SITKA ROCKY GUTIERREZ
Region USA (Alaska)
Timezone America/Juneau (UTC-9.0)
Stats Elevation 21 ft / 6 m (AMSL)
Location 57.047128° -135.361597°
Runways 1
Magnetic Variation 18.751° E

METAR

PASI 141453Z 12015KT 10SM -RA OVC032 09/06 A2970

Decode

TAF

TAF PASI 141140Z 1412/1512 11020G30KT P6SM -RA OVC040 WS020/15045KT FM141600 13015G25KT 4SM -RA BR OVC025 WS020/17040KT FM142200 21015G25KT 4SM -SHRA SCT025 OVC040 FM150600 20012KT P6SM -SHRA BKN025 OVC050 FM151000 19010KT P6SM -SHRA SCT025 OVC050

Decode

Destination Runways

ID Width Length Bearing (true) Bearing (mag) Surface Threshold Offset Overrun Length
11 150 ft / 46 m 6,485 ft / 1,977 m 135.57° 116.82° Asphalt 0 ft / 0 m 0 ft / 0 m
29 150 ft / 46 m 6,485 ft / 1,977 m 315.59° 296.84° Asphalt 0 ft / 0 m 0 ft / 0 m

Approach Navaids

Runway Type Ident Frequency Range Bearing (true) Bearing (mag) Slope Elevation
11 Localiser ISIT 108.90 MHz 18 nm / 33 km 143.51° 124.75° - 15 ft / 5 m (AMSL)
11 DME ISIT 108.90 MHz 18 nm / 33 km - - - 34 ft / 10 m (AMSL)

Popular Alternatives